sensor_id;sensor_type;location;lat;lon;timestamp;P1;durP1;ratioP1;P2;durP2;ratioP2
77158;SDS011;66129;45.890;13.714;2023-11-21T00:01:16;34.97;;;18.33;;
77158;SDS011;66129;45.890;13.714;2023-11-21T00:03:42;31.98;;;17.77;;
77158;SDS011;66129;45.890;13.714;2023-11-21T00:06:07;29.38;;;19.02;;
77158;SDS011;66129;45.890;13.714;2023-11-21T00:08:36;27.73;;;15.57;;
77158;SDS011;66129;45.890;13.714;2023-11-21T00:11:02;28.80;;;15.95;;
77158;SDS011;66129;45.890;13.714;2023-11-21T00:13:30;30.95;;;17.77;;
77158;SDS011;66129;45.890;13.714;2023-11-21T00:15:56;30.05;;;19.02;;
77158;SDS011;66129;45.890;13.714;2023-11-21T00:18:22;30.02;;;18.95;;
77158;SDS011;66129;45.890;13.714;2023-11-21T00:20:47;31.45;;;18.63;;
77158;SDS011;66129;45.890;13.714;2023-11-21T00:23:13;33.50;;;19.45;;
77158;SDS011;66129;45.890;13.714;2023-11-21T00:25:38;32.08;;;19.50;;
77158;SDS011;66129;45.890;13.714;2023-11-21T00:28:04;32.97;;;19.98;;
77158;SDS011;66129;45.890;13.714;2023-11-21T00:30:30;32.70;;;20.20;;
77158;SDS011;66129;45.890;13.714;2023-11-21T00:32:56;34.95;;;20.58;;
77158;SDS011;66129;45.890;13.714;2023-11-21T00:35:22;31.95;;;18.15;;
77158;SDS011;66129;45.890;13.714;2023-11-21T00:37:47;38.42;;;21.27;;
77158;SDS011;66129;45.890;13.714;2023-11-21T00:40:14;38.28;;;21.50;;
77158;SDS011;66129;45.890;13.714;2023-11-21T00:42:40;36.60;;;20.23;;
77158;SDS011;66129;45.890;13.714;2023-11-21T00:45:06;28.60;;;18.88;;
77158;SDS011;66129;45.890;13.714;2023-11-21T00:47:32;29.67;;;18.38;;
77158;SDS011;66129;45.890;13.714;2023-11-21T00:49:58;27.42;;;17.90;;
77158;SDS011;66129;45.890;13.714;2023-11-21T00:52:24;31.60;;;19.80;;
77158;SDS011;66129;45.890;13.714;2023-11-21T00:54:50;31.95;;;18.73;;
77158;SDS011;66129;45.890;13.714;2023-11-21T00:57:15;29.25;;;15.30;;
77158;SDS011;66129;45.890;13.714;2023-11-21T00:59:41;29.88;;;17.50;;
77158;SDS011;66129;45.890;13.714;2023-11-21T01:02:06;28.48;;;17.27;;
77158;SDS011;66129;45.890;13.714;2023-11-21T01:04:35;27.23;;;16.30;;
77158;SDS011;66129;45.890;13.714;2023-11-21T01:07:00;26.48;;;15.80;;
77158;SDS011;66129;45.890;13.714;2023-11-21T01:09:26;26.17;;;15.63;;
77158;SDS011;66129;45.890;13.714;2023-11-21T01:11:51;23.27;;;15.15;;
77158;SDS011;66129;45.890;13.714;2023-11-21T01:14:17;29.70;;;15.93;;
77158;SDS011;66129;45.890;13.714;2023-11-21T01:16:42;25.23;;;16.52;;
77158;SDS011;66129;45.890;13.714;2023-11-21T01:19:08;33.55;;;15.93;;
77158;SDS011;66129;45.890;13.714;2023-11-21T01:21:34;31.23;;;17.50;;
77158;SDS011;66129;45.890;13.714;2023-11-21T01:23:59;35.78;;;18.63;;
77158;SDS011;66129;45.890;13.714;2023-11-21T01:26:25;25.77;;;17.42;;
77158;SDS011;66129;45.890;13.714;2023-11-21T01:28:50;28.48;;;16.02;;
77158;SDS011;66129;45.890;13.714;2023-11-21T01:31:16;23.83;;;16.58;;
77158;SDS011;66129;45.890;13.714;2023-11-21T01:33:41;28.13;;;17.15;;
77158;SDS011;66129;45.890;13.714;2023-11-21T01:36:07;28.73;;;18.35;;
77158;SDS011;66129;45.890;13.714;2023-11-21T01:38:33;32.40;;;19.83;;
77158;SDS011;66129;45.890;13.714;2023-11-21T01:40:59;30.27;;;18.92;;
77158;SDS011;66129;45.890;13.714;2023-11-21T01:43:26;26.50;;;17.50;;
77158;SDS011;66129;45.890;13.714;2023-11-21T01:45:53;29.00;;;18.05;;
77158;SDS011;66129;45.890;13.714;2023-11-21T01:48:22;37.92;;;20.50;;
77158;SDS011;66129;45.890;13.714;2023-11-21T01:50:48;26.42;;;16.92;;
77158;SDS011;66129;45.890;13.714;2023-11-21T01:53:14;28.00;;;16.73;;
77158;SDS011;66129;45.890;13.714;2023-11-21T01:55:40;33.40;;;16.25;;
77158;SDS011;66129;45.890;13.714;2023-11-21T01:58:07;25.50;;;14.35;;
77158;SDS011;66129;45.890;13.714;2023-11-21T02:00:34;29.00;;;15.55;;
77158;SDS011;66129;45.890;13.714;2023-11-21T02:03:00;65.05;;;26.92;;
77158;SDS011;66129;45.890;13.714;2023-11-21T02:05:26;56.65;;;24.95;;
77158;SDS011;66129;45.890;13.714;2023-11-21T02:07:51;59.75;;;25.63;;
77158;SDS011;66129;45.890;13.714;2023-11-21T02:10:17;51.58;;;24.08;;
77158;SDS011;66129;45.890;13.714;2023-11-21T02:12:47;32.33;;;18.35;;
77158;SDS011;66129;45.890;13.714;2023-11-21T02:15:16;27.92;;;16.58;;
77158;SDS011;66129;45.890;13.714;2023-11-21T02:17:45;26.58;;;18.25;;
77158;SDS011;66129;45.890;13.714;2023-11-21T02:20:16;31.23;;;16.80;;
77158;SDS011;66129;45.890;13.714;2023-11-21T02:22:44;32.78;;;17.15;;
77158;SDS011;66129;45.890;13.714;2023-11-21T02:25:15;26.90;;;16.85;;
77158;SDS011;66129;45.890;13.714;2023-11-21T02:27:40;30.10;;;17.30;;
77158;SDS011;66129;45.890;13.714;2023-11-21T02:30:06;26.42;;;15.82;;
77158;SDS011;66129;45.890;13.714;2023-11-21T02:32:35;28.15;;;16.92;;
77158;SDS011;66129;45.890;13.714;2023-11-21T02:35:00;27.15;;;15.43;;
77158;SDS011;66129;45.890;13.714;2023-11-21T02:37:26;25.13;;;15.63;;
77158;SDS011;66129;45.890;13.714;2023-11-21T02:39:52;25.08;;;15.25;;
77158;SDS011;66129;45.890;13.714;2023-11-21T02:42:17;26.10;;;14.02;;
77158;SDS011;66129;45.890;13.714;2023-11-21T02:44:43;23.52;;;13.63;;
77158;SDS011;66129;45.890;13.714;2023-11-21T02:47:09;26.80;;;14.02;;
77158;SDS011;66129;45.890;13.714;2023-11-21T02:49:35;23.20;;;13.07;;
77158;SDS011;66129;45.890;13.714;2023-11-21T02:52:01;22.08;;;13.95;;
77158;SDS011;66129;45.890;13.714;2023-11-21T02:54:27;23.70;;;12.55;;
77158;SDS011;66129;45.890;13.714;2023-11-21T02:56:52;19.30;;;12.90;;
77158;SDS011;66129;45.890;13.714;2023-11-21T02:59:18;19.10;;;13.18;;
77158;SDS011;66129;45.890;13.714;2023-11-21T03:01:44;20.30;;;12.20;;
77158;SDS011;66129;45.890;13.714;2023-11-21T03:04:11;18.65;;;12.65;;
77158;SDS011;66129;45.890;13.714;2023-11-21T03:06:42;21.10;;;12.00;;
77158;SDS011;66129;45.890;13.714;2023-11-21T03:09:09;18.98;;;11.57;;
77158;SDS011;66129;45.890;13.714;2023-11-21T03:11:34;18.40;;;11.27;;
77158;SDS011;66129;45.890;13.714;2023-11-21T03:14:00;19.45;;;12.98;;
77158;SDS011;66129;45.890;13.714;2023-11-21T03:16:25;25.50;;;12.43;;
77158;SDS011;66129;45.890;13.714;2023-11-21T03:18:51;20.38;;;11.65;;
77158;SDS011;66129;45.890;13.714;2023-11-21T03:21:17;21.83;;;12.90;;
77158;SDS011;66129;45.890;13.714;2023-11-21T03:23:42;25.50;;;13.10;;
77158;SDS011;66129;45.890;13.714;2023-11-21T03:26:11;24.23;;;14.43;;
77158;SDS011;66129;45.890;13.714;2023-11-21T03:28:38;24.92;;;14.50;;
77158;SDS011;66129;45.890;13.714;2023-11-21T03:31:03;20.40;;;13.82;;
77158;SDS011;66129;45.890;13.714;2023-11-21T03:33:29;24.42;;;14.77;;
77158;SDS011;66129;45.890;13.714;2023-11-21T03:35:54;25.63;;;15.32;;
77158;SDS011;66129;45.890;13.714;2023-11-21T03:38:20;23.15;;;14.38;;
77158;SDS011;66129;45.890;13.714;2023-11-21T03:40:46;22.45;;;13.68;;
77158;SDS011;66129;45.890;13.714;2023-11-21T03:43:12;34.30;;;16.85;;
77158;SDS011;66129;45.890;13.714;2023-11-21T03:45:38;23.95;;;16.75;;
77158;SDS011;66129;45.890;13.714;2023-11-21T03:48:05;26.48;;;16.33;;
77158;SDS011;66129;45.890;13.714;2023-11-21T03:50:31;28.85;;;16.00;;
77158;SDS011;66129;45.890;13.714;2023-11-21T03:52:57;27.77;;;17.27;;
77158;SDS011;66129;45.890;13.714;2023-11-21T03:55:22;25.60;;;15.00;;
77158;SDS011;66129;45.890;13.714;2023-11-21T03:57:51;31.27;;;17.85;;
77158;SDS011;66129;45.890;13.714;2023-11-21T04:00:17;28.77;;;17.27;;
77158;SDS011;66129;45.890;13.714;2023-11-21T04:02:45;26.67;;;17.17;;
77158;SDS011;66129;45.890;13.714;2023-11-21T04:05:11;32.78;;;17.33;;
77158;SDS011;66129;45.890;13.714;2023-11-21T04:07:37;24.73;;;12.77;;
77158;SDS011;66129;45.890;13.714;2023-11-21T04:10:03;24.15;;;13.88;;
77158;SDS011;66129;45.890;13.714;2023-11-21T04:12:31;17.85;;;10.48;;
77158;SDS011;66129;45.890;13.714;2023-11-21T04:14:56;16.40;;;9.50;;
77158;SDS011;66129;45.890;13.714;2023-11-21T04:17:22;20.27;;;11.07;;
77158;SDS011;66129;45.890;13.714;2023-11-21T04:19:47;16.48;;;10.10;;
77158;SDS011;66129;45.890;13.714;2023-11-21T04:22:13;15.77;;;9.82;;
77158;SDS011;66129;45.890;13.714;2023-11-21T04:24:38;17.70;;;10.38;;
77158;SDS011;66129;45.890;13.714;2023-11-21T04:27:03;17.90;;;10.43;;
77158;SDS011;66129;45.890;13.714;2023-11-21T04:29:29;16.98;;;10.50;;
77158;SDS011;66129;45.890;13.714;2023-11-21T04:31:55;17.70;;;11.63;;
77158;SDS011;66129;45.890;13.714;2023-11-21T04:34:20;22.58;;;15.25;;
77158;SDS011;66129;45.890;13.714;2023-11-21T04:36:46;22.00;;;14.75;;
77158;SDS011;66129;45.890;13.714;2023-11-21T04:39:11;26.08;;;15.32;;
77158;SDS011;66129;45.890;13.714;2023-11-21T04:41:37;23.05;;;14.10;;
77158;SDS011;66129;45.890;13.714;2023-11-21T04:44:05;23.92;;;16.05;;
77158;SDS011;66129;45.890;13.714;2023-11-21T04:46:31;26.02;;;14.77;;
77158;SDS011;66129;45.890;13.714;2023-11-21T04:48:57;22.42;;;14.70;;
77158;SDS011;66129;45.890;13.714;2023-11-21T04:51:23;21.65;;;14.80;;
77158;SDS011;66129;45.890;13.714;2023-11-21T04:53:48;20.17;;;12.88;;
77158;SDS011;66129;45.890;13.714;2023-11-21T04:56:14;20.15;;;11.13;;
77158;SDS011;66129;45.890;13.714;2023-11-21T04:58:41;17.65;;;8.40;;
77158;SDS011;66129;45.890;13.714;2023-11-21T05:01:09;5.88;;;3.85;;
77158;SDS011;66129;45.890;13.714;2023-11-21T05:03:35;3.80;;;2.25;;
77158;SDS011;66129;45.890;13.714;2023-11-21T05:06:00;3.35;;;2.10;;
77158;SDS011;66129;45.890;13.714;2023-11-21T05:08:26;2.47;;;1.85;;
77158;SDS011;66129;45.890;13.714;2023-11-21T05:10:52;5.10;;;2.03;;
77158;SDS011;66129;45.890;13.714;2023-11-21T05:13:18;2.90;;;1.88;;
77158;SDS011;66129;45.890;13.714;2023-11-21T05:15:45;2.60;;;1.83;;
77158;SDS011;66129;45.890;13.714;2023-11-21T05:18:11;3.28;;;1.50;;
77158;SDS011;66129;45.890;13.714;2023-11-21T05:20:38;2.40;;;1.50;;
77158;SDS011;66129;45.890;13.714;2023-11-21T05:23:04;4.95;;;1.90;;
77158;SDS011;66129;45.890;13.714;2023-11-21T05:25:30;2.30;;;1.73;;
77158;SDS011;66129;45.890;13.714;2023-11-21T05:27:55;3.17;;;1.58;;
77158;SDS011;66129;45.890;13.714;2023-11-21T05:30:21;3.03;;;1.52;;
77158;SDS011;66129;45.890;13.714;2023-11-21T05:32:47;1.77;;;1.38;;
77158;SDS011;66129;45.890;13.714;2023-11-21T05:35:12;4.63;;;1.75;;
77158;SDS011;66129;45.890;13.714;2023-11-21T05:37:41;1.92;;;1.20;;
77158;SDS011;66129;45.890;13.714;2023-11-21T05:40:07;1.85;;;1.33;;
77158;SDS011;66129;45.890;13.714;2023-11-21T05:42:34;2.58;;;1.60;;
77158;SDS011;66129;45.890;13.714;2023-11-21T05:45:00;1.92;;;1.30;;
77158;SDS011;66129;45.890;13.714;2023-11-21T05:47:39;3.92;;;1.65;;
77158;SDS011;66129;45.890;13.714;2023-11-21T05:50:06;5.57;;;1.65;;
77158;SDS011;66129;45.890;13.714;2023-11-21T05:52:39;5.13;;;1.67;;
77158;SDS011;66129;45.890;13.714;2023-11-21T05:55:05;3.30;;;1.63;;
77158;SDS011;66129;45.890;13.714;2023-11-21T05:57:35;3.50;;;1.65;;
77158;SDS011;66129;45.890;13.714;2023-11-21T06:00:04;3.88;;;1.80;;
77158;SDS011;66129;45.890;13.714;2023-11-21T06:02:36;5.90;;;2.40;;
77158;SDS011;66129;45.890;13.714;2023-11-21T06:05:03;2.90;;;1.60;;
77158;SDS011;66129;45.890;13.714;2023-11-21T06:07:29;1.88;;;1.00;;
77158;SDS011;66129;45.890;13.714;2023-11-21T06:09:54;3.40;;;1.50;;
77158;SDS011;66129;45.890;13.714;2023-11-21T06:12:20;3.00;;;1.80;;
77158;SDS011;66129;45.890;13.714;2023-11-21T06:14:45;1.80;;;1.13;;
77158;SDS011;66129;45.890;13.714;2023-11-21T06:17:11;5.10;;;1.73;;
77158;SDS011;66129;45.890;13.714;2023-11-21T06:19:36;1.95;;;1.45;;
77158;SDS011;66129;45.890;13.714;2023-11-21T06:22:02;3.08;;;1.60;;
77158;SDS011;66129;45.890;13.714;2023-11-21T06:24:27;3.72;;;1.50;;
77158;SDS011;66129;45.890;13.714;2023-11-21T06:26:53;2.03;;;1.30;;
77158;SDS011;66129;45.890;13.714;2023-11-21T06:29:18;2.40;;;1.63;;
77158;SDS011;66129;45.890;13.714;2023-11-21T06:31:44;2.40;;;1.20;;
77158;SDS011;66129;45.890;13.714;2023-11-21T06:34:11;4.85;;;1.40;;
77158;SDS011;66129;45.890;13.714;2023-11-21T06:36:37;2.40;;;1.40;;
77158;SDS011;66129;45.890;13.714;2023-11-21T06:39:02;1.52;;;1.05;;
77158;SDS011;66129;45.890;13.714;2023-11-21T06:41:33;2.78;;;1.77;;
77158;SDS011;66129;45.890;13.714;2023-11-21T06:43:59;2.70;;;1.58;;
77158;SDS011;66129;45.890;13.714;2023-11-21T06:46:25;4.47;;;1.65;;
77158;SDS011;66129;45.890;13.714;2023-11-21T06:48:50;2.30;;;1.30;;
77158;SDS011;66129;45.890;13.714;2023-11-21T06:51:16;2.35;;;1.27;;
77158;SDS011;66129;45.890;13.714;2023-11-21T06:53:41;1.95;;;1.33;;
77158;SDS011;66129;45.890;13.714;2023-11-21T06:56:16;2.05;;;1.40;;
77158;SDS011;66129;45.890;13.714;2023-11-21T06:58:43;3.40;;;1.67;;
77158;SDS011;66129;45.890;13.714;2023-11-21T07:01:10;1.70;;;1.08;;
77158;SDS011;66129;45.890;13.714;2023-11-21T07:03:36;2.38;;;1.23;;
77158;SDS011;66129;45.890;13.714;2023-11-21T07:06:02;2.60;;;1.20;;
77158;SDS011;66129;45.890;13.714;2023-11-21T07:08:28;3.25;;;2.78;;
77158;SDS011;66129;45.890;13.714;2023-11-21T07:10:54;2.75;;;1.23;;
77158;SDS011;66129;45.890;13.714;2023-11-21T07:13:19;2.08;;;1.52;;
77158;SDS011;66129;45.890;13.714;2023-11-21T07:15:46;2.92;;;1.27;;
77158;SDS011;66129;45.890;13.714;2023-11-21T07:18:13;2.55;;;1.38;;
77158;SDS011;66129;45.890;13.714;2023-11-21T07:20:38;2.08;;;1.35;;
77158;SDS011;66129;45.890;13.714;2023-11-21T07:23:04;3.00;;;1.15;;
77158;SDS011;66129;45.890;13.714;2023-11-21T07:25:30;2.92;;;1.00;;
77158;SDS011;66129;45.890;13.714;2023-11-21T07:27:56;1.75;;;1.10;;
77158;SDS011;66129;45.890;13.714;2023-11-21T07:30:22;2.13;;;1.50;;
77158;SDS011;66129;45.890;13.714;2023-11-21T07:32:48;1.90;;;1.20;;
77158;SDS011;66129;45.890;13.714;2023-11-21T07:35:14;2.33;;;1.30;;
77158;SDS011;66129;45.890;13.714;2023-11-21T07:37:39;2.20;;;1.20;;
77158;SDS011;66129;45.890;13.714;2023-11-21T07:40:05;4.05;;;1.17;;
77158;SDS011;66129;45.890;13.714;2023-11-21T07:42:33;1.52;;;1.20;;
77158;SDS011;66129;45.890;13.714;2023-11-21T07:44:59;1.13;;;0.88;;
77158;SDS011;66129;45.890;13.714;2023-11-21T07:47:25;2.03;;;1.10;;
77158;SDS011;66129;45.890;13.714;2023-11-21T07:49:52;2.15;;;0.98;;
77158;SDS011;66129;45.890;13.714;2023-11-21T07:52:18;1.20;;;0.82;;
77158;SDS011;66129;45.890;13.714;2023-11-21T07:54:46;0.82;;;0.80;;
77158;SDS011;66129;45.890;13.714;2023-11-21T07:57:11;2.28;;;1.23;;
77158;SDS011;66129;45.890;13.714;2023-11-21T07:59:38;1.33;;;0.90;;
77158;SDS011;66129;45.890;13.714;2023-11-21T08:02:06;1.50;;;0.95;;
77158;SDS011;66129;45.890;13.714;2023-11-21T08:04:32;1.15;;;0.88;;
77158;SDS011;66129;45.890;13.714;2023-11-21T08:06:57;2.42;;;0.93;;
77158;SDS011;66129;45.890;13.714;2023-11-21T08:09:23;5.45;;;1.20;;
77158;SDS011;66129;45.890;13.714;2023-11-21T08:11:49;1.08;;;0.80;;
77158;SDS011;66129;45.890;13.714;2023-11-21T08:14:15;1.75;;;1.17;;
77158;SDS011;66129;45.890;13.714;2023-11-21T08:16:40;0.90;;;0.80;;
77158;SDS011;66129;45.890;13.714;2023-11-21T08:19:06;0.73;;;0.50;;
77158;SDS011;66129;45.890;13.714;2023-11-21T08:21:33;1.83;;;1.20;;
77158;SDS011;66129;45.890;13.714;2023-11-21T08:23:59;2.22;;;1.20;;
77158;SDS011;66129;45.890;13.714;2023-11-21T08:26:25;1.55;;;1.10;;
77158;SDS011;66129;45.890;13.714;2023-11-21T08:28:51;2.30;;;1.00;;
77158;SDS011;66129;45.890;13.714;2023-11-21T08:31:23;1.48;;;0.93;;
77158;SDS011;66129;45.890;13.714;2023-11-21T08:33:49;0.95;;;0.77;;
77158;SDS011;66129;45.890;13.714;2023-11-21T08:36:15;1.58;;;0.82;;
77158;SDS011;66129;45.890;13.714;2023-11-21T08:38:40;1.63;;;0.93;;
77158;SDS011;66129;45.890;13.714;2023-11-21T08:41:06;1.02;;;0.88;;
77158;SDS011;66129;45.890;13.714;2023-11-21T08:43:35;3.25;;;1.30;;
77158;SDS011;66129;45.890;13.714;2023-11-21T08:46:04;1.27;;;1.00;;
77158;SDS011;66129;45.890;13.714;2023-11-21T08:48:31;2.38;;;1.50;;
77158;SDS011;66129;45.890;13.714;2023-11-21T08:50:56;1.50;;;0.80;;
77158;SDS011;66129;45.890;13.714;2023-11-21T08:53:22;1.88;;;1.00;;
77158;SDS011;66129;45.890;13.714;2023-11-21T08:55:47;2.13;;;1.10;;
77158;SDS011;66129;45.890;13.714;2023-11-21T08:58:15;1.13;;;0.80;;
77158;SDS011;66129;45.890;13.714;2023-11-21T09:00:41;3.10;;;1.30;;
77158;SDS011;66129;45.890;13.714;2023-11-21T09:03:06;2.00;;;1.30;;
77158;SDS011;66129;45.890;13.714;2023-11-21T09:05:33;2.35;;;1.60;;
77158;SDS011;66129;45.890;13.714;2023-11-21T09:08:03;1.80;;;1.02;;
77158;SDS011;66129;45.890;13.714;2023-11-21T09:10:29;3.08;;;1.05;;
77158;SDS011;66129;45.890;13.714;2023-11-21T09:12:54;3.85;;;1.30;;
77158;SDS011;66129;45.890;13.714;2023-11-21T09:15:20;4.50;;;1.45;;
77158;SDS011;66129;45.890;13.714;2023-11-21T09:17:45;4.70;;;1.95;;
77158;SDS011;66129;45.890;13.714;2023-11-21T09:20:11;2.65;;;1.40;;
77158;SDS011;66129;45.890;13.714;2023-11-21T09:22:37;3.45;;;2.03;;
77158;SDS011;66129;45.890;13.714;2023-11-21T09:25:02;4.38;;;2.03;;
77158;SDS011;66129;45.890;13.714;2023-11-21T09:27:32;4.30;;;1.50;;
77158;SDS011;66129;45.890;13.714;2023-11-21T09:29:57;2.10;;;1.35;;
77158;SDS011;66129;45.890;13.714;2023-11-21T09:32:23;3.20;;;1.40;;
77158;SDS011;66129;45.890;13.714;2023-11-21T09:34:49;3.20;;;1.52;;
77158;SDS011;66129;45.890;13.714;2023-11-21T09:37:15;4.32;;;1.50;;
77158;SDS011;66129;45.890;13.714;2023-11-21T09:39:41;2.40;;;1.40;;
77158;SDS011;66129;45.890;13.714;2023-11-21T09:44:46;3.38;;;1.80;;
77158;SDS011;66129;45.890;13.714;2023-11-21T09:47:21;2.35;;;1.52;;
77158;SDS011;66129;45.890;13.714;2023-11-21T09:49:48;4.25;;;1.85;;
77158;SDS011;66129;45.890;13.714;2023-11-21T09:52:24;2.03;;;1.20;;
77158;SDS011;66129;45.890;13.714;2023-11-21T09:54:54;2.83;;;1.45;;
77158;SDS011;66129;45.890;13.714;2023-11-21T09:57:23;2.45;;;1.50;;
77158;SDS011;66129;45.890;13.714;2023-11-21T09:59:53;1.42;;;1.00;;
77158;SDS011;66129;45.890;13.714;2023-11-21T10:02:27;2.50;;;1.60;;
77158;SDS011;66129;45.890;13.714;2023-11-21T10:04:55;4.68;;;1.58;;
77158;SDS011;66129;45.890;13.714;2023-11-21T10:07:21;1.98;;;1.17;;
77158;SDS011;66129;45.890;13.714;2023-11-21T10:09:48;1.80;;;1.08;;
77158;SDS011;66129;45.890;13.714;2023-11-21T10:12:14;2.03;;;1.50;;
77158;SDS011;66129;45.890;13.714;2023-11-21T10:14:41;2.85;;;1.55;;
77158;SDS011;66129;45.890;13.714;2023-11-21T10:17:08;1.55;;;1.00;;
77158;SDS011;66129;45.890;13.714;2023-11-21T10:19:37;3.42;;;1.42;;
77158;SDS011;66129;45.890;13.714;2023-11-21T10:22:04;1.50;;;1.15;;
77158;SDS011;66129;45.890;13.714;2023-11-21T10:24:32;0.90;;;0.63;;
77158;SDS011;66129;45.890;13.714;2023-11-21T10:26:57;1.60;;;1.17;;
77158;SDS011;66129;45.890;13.714;2023-11-21T10:29:23;1.33;;;0.90;;
77158;SDS011;66129;45.890;13.714;2023-11-21T10:31:49;1.35;;;0.93;;
77158;SDS011;66129;45.890;13.714;2023-11-21T10:36:43;1.85;;;1.17;;
77158;SDS011;66129;45.890;13.714;2023-11-21T10:39:09;1.02;;;0.77;;
77158;SDS011;66129;45.890;13.714;2023-11-21T10:41:38;1.38;;;0.98;;
77158;SDS011;66129;45.890;13.714;2023-11-21T10:44:04;3.20;;;1.27;;
77158;SDS011;66129;45.890;13.714;2023-11-21T10:46:32;2.45;;;1.15;;
77158;SDS011;66129;45.890;13.714;2023-11-21T10:48:58;1.20;;;0.90;;
77158;SDS011;66129;45.890;13.714;2023-11-21T10:51:25;2.10;;;1.02;;
77158;SDS011;66129;45.890;13.714;2023-11-21T10:53:53;1.42;;;1.10;;
77158;SDS011;66129;45.890;13.714;2023-11-21T10:56:19;3.75;;;1.50;;
77158;SDS011;66129;45.890;13.714;2023-11-21T10:58:48;2.13;;;1.20;;
77158;SDS011;66129;45.890;13.714;2023-11-21T11:01:17;2.25;;;1.27;;
77158;SDS011;66129;45.890;13.714;2023-11-21T11:03:44;1.85;;;1.05;;
77158;SDS011;66129;45.890;13.714;2023-11-21T11:06:10;1.08;;;0.80;;
77158;SDS011;66129;45.890;13.714;2023-11-21T11:08:38;2.88;;;1.55;;
77158;SDS011;66129;45.890;13.714;2023-11-21T11:11:05;2.35;;;1.33;;
77158;SDS011;66129;45.890;13.714;2023-11-21T11:13:31;2.00;;;1.25;;
77158;SDS011;66129;45.890;13.714;2023-11-21T11:16:00;1.50;;;0.90;;
77158;SDS011;66129;45.890;13.714;2023-11-21T11:18:32;1.85;;;1.20;;
77158;SDS011;66129;45.890;13.714;2023-11-21T11:29:41;3.03;;;1.60;;
77158;SDS011;66129;45.890;13.714;2023-11-21T11:35:10;2.78;;;1.23;;
77158;SDS011;66129;45.890;13.714;2023-11-21T11:37:57;1.67;;;1.10;;
77158;SDS011;66129;45.890;13.714;2023-11-21T11:40:25;2.17;;;1.33;;
77158;SDS011;66129;45.890;13.714;2023-11-21T11:43:03;2.78;;;1.10;;
77158;SDS011;66129;45.890;13.714;2023-11-21T11:45:32;3.05;;;1.90;;
77158;SDS011;66129;45.890;13.714;2023-11-21T11:48:00;2.47;;;1.08;;
77158;SDS011;66129;45.890;13.714;2023-11-21T11:50:27;2.78;;;1.67;;
77158;SDS011;66129;45.890;13.714;2023-11-21T11:52:53;1.88;;;1.08;;
77158;SDS011;66129;45.890;13.714;2023-11-21T11:55:23;2.33;;;1.42;;
77158;SDS011;66129;45.890;13.714;2023-11-21T11:57:53;1.80;;;1.30;;
77158;SDS011;66129;45.890;13.714;2023-11-21T12:02:52;1.60;;;1.13;;
77158;SDS011;66129;45.890;13.714;2023-11-21T12:05:23;3.38;;;1.80;;
77158;SDS011;66129;45.890;13.714;2023-11-21T12:07:56;2.03;;;1.13;;
77158;SDS011;66129;45.890;13.714;2023-11-21T12:10:29;2.17;;;1.30;;
77158;SDS011;66129;45.890;13.714;2023-11-21T12:13:08;2.42;;;1.30;;
77158;SDS011;66129;45.890;13.714;2023-11-21T12:15:37;2.70;;;1.50;;
77158;SDS011;66129;45.890;13.714;2023-11-21T12:18:03;2.53;;;1.30;;
77158;SDS011;66129;45.890;13.714;2023-11-21T12:20:29;3.58;;;1.50;;
77158;SDS011;66129;45.890;13.714;2023-11-21T12:22:59;3.28;;;1.20;;
77158;SDS011;66129;45.890;13.714;2023-11-21T12:25:29;2.15;;;1.30;;
77158;SDS011;66129;45.890;13.714;2023-11-21T12:27:57;2.85;;;1.50;;
77158;SDS011;66129;45.890;13.714;2023-11-21T12:30:24;2.00;;;1.58;;
77158;SDS011;66129;45.890;13.714;2023-11-21T12:32:54;2.42;;;1.25;;
77158;SDS011;66129;45.890;13.714;2023-11-21T12:35:26;3.97;;;1.30;;
77158;SDS011;66129;45.890;13.714;2023-11-21T12:37:54;2.63;;;1.25;;
77158;SDS011;66129;45.890;13.714;2023-11-21T12:40:22;1.77;;;1.02;;
77158;SDS011;66129;45.890;13.714;2023-11-21T12:42:48;2.03;;;1.33;;
77158;SDS011;66129;45.890;13.714;2023-11-21T12:47:45;2.05;;;1.40;;
77158;SDS011;66129;45.890;13.714;2023-11-21T12:50:18;2.70;;;1.60;;
77158;SDS011;66129;45.890;13.714;2023-11-21T12:52:48;1.77;;;1.58;;
77158;SDS011;66129;45.890;13.714;2023-11-21T12:55:19;3.00;;;1.58;;
77158;SDS011;66129;45.890;13.714;2023-11-21T12:57:50;2.83;;;1.92;;
77158;SDS011;66129;45.890;13.714;2023-11-21T13:00:17;6.68;;;3.15;;
77158;SDS011;66129;45.890;13.714;2023-11-21T13:02:56;3.13;;;2.08;;
77158;SDS011;66129;45.890;13.714;2023-11-21T13:05:29;2.60;;;1.52;;
77158;SDS011;66129;45.890;13.714;2023-11-21T13:07:57;2.83;;;1.23;;
77158;SDS011;66129;45.890;13.714;2023-11-21T13:10:30;4.72;;;2.17;;
77158;SDS011;66129;45.890;13.714;2023-11-21T13:12:59;3.38;;;2.00;;
77158;SDS011;66129;45.890;13.714;2023-11-21T13:15:27;3.53;;;1.60;;
77158;SDS011;66129;45.890;13.714;2023-11-21T13:17:53;3.30;;;1.70;;
77158;SDS011;66129;45.890;13.714;2023-11-21T13:20:19;4.18;;;1.90;;
77158;SDS011;66129;45.890;13.714;2023-11-21T13:25:22;2.28;;;1.40;;
77158;SDS011;66129;45.890;13.714;2023-11-21T13:27:48;4.45;;;1.40;;
77158;SDS011;66129;45.890;13.714;2023-11-21T13:30:15;1.50;;;1.00;;
77158;SDS011;66129;45.890;13.714;2023-11-21T13:32:44;3.45;;;1.50;;
77158;SDS011;66129;45.890;13.714;2023-11-21T13:35:16;3.08;;;1.33;;
77158;SDS011;66129;45.890;13.714;2023-11-21T13:37:49;3.05;;;1.50;;
77158;SDS011;66129;45.890;13.714;2023-11-21T13:40:20;2.60;;;1.60;;
77158;SDS011;66129;45.890;13.714;2023-11-21T13:42:51;3.75;;;1.58;;
77158;SDS011;66129;45.890;13.714;2023-11-21T13:45:21;4.07;;;1.92;;
77158;SDS011;66129;45.890;13.714;2023-11-21T13:47:48;4.78;;;2.20;;
77158;SDS011;66129;45.890;13.714;2023-11-21T13:50:16;3.13;;;1.38;;
77158;SDS011;66129;45.890;13.714;2023-11-21T13:52:47;3.67;;;1.90;;
77158;SDS011;66129;45.890;13.714;2023-11-21T13:55:13;1.92;;;1.10;;
77158;SDS011;66129;45.890;13.714;2023-11-21T13:57:44;3.03;;;1.65;;
77158;SDS011;66129;45.890;13.714;2023-11-21T14:00:14;2.03;;;1.10;;
77158;SDS011;66129;45.890;13.714;2023-11-21T14:03:15;2.67;;;1.85;;
77158;SDS011;66129;45.890;13.714;2023-11-21T14:05:47;2.50;;;1.48;;
77158;SDS011;66129;45.890;13.714;2023-11-21T14:08:25;2.65;;;1.23;;
77158;SDS011;66129;45.890;13.714;2023-11-21T14:10:56;4.72;;;1.92;;
77158;SDS011;66129;45.890;13.714;2023-11-21T14:13:28;3.85;;;1.73;;
77158;SDS011;66129;45.890;13.714;2023-11-21T14:15:54;3.35;;;1.15;;
77158;SDS011;66129;45.890;13.714;2023-11-21T14:18:25;2.72;;;1.40;;
77158;SDS011;66129;45.890;13.714;2023-11-21T14:20:55;1.50;;;1.17;;
77158;SDS011;66129;45.890;13.714;2023-11-21T14:23:21;3.97;;;1.42;;
77158;SDS011;66129;45.890;13.714;2023-11-21T14:25:48;1.30;;;1.02;;
77158;SDS011;66129;45.890;13.714;2023-11-21T14:28:17;2.63;;;1.27;;
77158;SDS011;66129;45.890;13.714;2023-11-21T14:30:44;1.95;;;0.90;;
77158;SDS011;66129;45.890;13.714;2023-11-21T14:33:12;2.05;;;1.15;;
77158;SDS011;66129;45.890;13.714;2023-11-21T14:35:38;3.65;;;1.40;;
77158;SDS011;66129;45.890;13.714;2023-11-21T14:38:03;1.40;;;0.93;;
77158;SDS011;66129;45.890;13.714;2023-11-21T14:40:30;1.58;;;1.00;;
77158;SDS011;66129;45.890;13.714;2023-11-21T14:42:59;4.97;;;1.20;;
77158;SDS011;66129;45.890;13.714;2023-11-21T14:45:25;5.35;;;1.85;;
77158;SDS011;66129;45.890;13.714;2023-11-21T14:47:52;4.60;;;1.85;;
77158;SDS011;66129;45.890;13.714;2023-11-21T14:50:30;3.50;;;1.50;;